createdAt,value
2023-02-12T00:00:00.332Z,4.21
2023-02-12T00:02:27.175Z,4.26
2023-02-12T00:04:53.845Z,4.29
2023-02-12T00:07:20.472Z,4.28
2023-02-12T00:09:47.101Z,4.28
2023-02-12T00:12:13.720Z,4.35
2023-02-12T00:14:40.471Z,4.38
2023-02-12T00:17:07.082Z,4.41
2023-02-12T00:19:33.722Z,4.42
2023-02-12T00:22:00.343Z,4.42
2023-02-12T00:24:27.954Z,4.40
2023-02-12T00:26:54.694Z,4.43
2023-02-12T00:29:21.397Z,4.51
2023-02-12T00:31:48.118Z,4.53
2023-02-12T00:34:14.888Z,4.49
2023-02-12T00:36:41.523Z,4.50
2023-02-12T00:39:08.141Z,4.48
2023-02-12T00:41:34.731Z,4.45
2023-02-12T00:44:01.342Z,4.47
2023-02-12T00:46:28.057Z,4.48
2023-02-12T00:48:54.844Z,4.46
2023-02-12T00:51:21.697Z,4.47
2023-02-12T00:53:48.384Z,4.41
2023-02-12T00:56:15.218Z,4.49
2023-02-12T00:58:41.939Z,4.45
2023-02-12T01:01:08.689Z,4.49
2023-02-12T01:03:35.446Z,4.50
2023-02-12T01:06:02.173Z,4.46
2023-02-12T01:08:28.839Z,4.46
2023-02-12T01:10:59.387Z,4.50
2023-02-12T01:13:27.001Z,4.56
2023-02-12T01:16:23.422Z,4.51
2023-02-12T01:18:54.440Z,4.50
2023-02-12T01:21:25.572Z,4.49
2023-02-12T01:23:52.212Z,4.52
2023-02-12T01:26:20.834Z,4.55
2023-02-12T01:28:53.621Z,4.53
2023-02-12T01:31:23.668Z,4.56
2023-02-12T01:33:52.076Z,4.56
2023-02-12T01:36:19.045Z,4.55
2023-02-12T01:38:45.666Z,4.53
2023-02-12T01:41:15.706Z,4.54
2023-02-12T01:43:42.501Z,4.52
2023-02-12T01:46:13.448Z,4.48
2023-02-12T01:48:45.510Z,4.47
2023-02-12T01:51:16.492Z,4.53
2023-02-12T01:53:50.922Z,4.58
2023-02-12T01:56:18.197Z,4.57
2023-02-12T01:58:47.416Z,4.55
2023-02-12T02:01:19.737Z,4.59
2023-02-12T02:03:50.058Z,4.59
2023-02-12T02:06:21.328Z,4.60
2023-02-12T02:08:48.589Z,4.59
2023-02-12T02:11:33.821Z,4.59
2023-02-12T02:14:19.115Z,4.57
2023-02-12T02:17:06.698Z,4.54
2023-02-12T02:20:01.623Z,4.59
2023-02-12T02:22:59.308Z,4.59
2023-02-12T02:25:46.593Z,4.58
2023-02-12T02:28:19.077Z,4.56
2023-02-12T02:31:05.787Z,4.54
2023-02-12T02:33:53.910Z,4.48
2023-02-12T02:36:32.670Z,4.47
2023-02-12T02:39:11.119Z,4.50
2023-02-12T02:41:53.296Z,4.50
2023-02-12T02:44:36.729Z,4.54
2023-02-12T02:47:08.047Z,4.59
2023-02-12T02:49:40.475Z,4.59
2023-02-12T02:52:12.439Z,4.58
2023-02-12T02:54:54.468Z,4.57
2023-02-12T02:57:29.810Z,4.57
2023-02-12T03:00:05.287Z,4.49
2023-02-12T03:02:35.497Z,4.48
2023-02-12T03:05:22.498Z,4.50
2023-02-12T03:07:58.053Z,4.50
2023-02-12T03:10:31.682Z,4.54
2023-02-12T03:13:14.753Z,4.50
2023-02-12T03:16:02.943Z,4.55
2023-02-12T03:18:42.790Z,4.60
2023-02-12T03:21:16.087Z,4.63
2023-02-12T03:23:52.927Z,4.66
2023-02-12T03:26:27.449Z,4.66
2023-02-12T03:28:54.174Z,4.74
2023-02-12T03:31:35.667Z,4.72
2023-02-12T03:34:15.321Z,4.67
2023-02-12T03:37:05.973Z,4.67
2023-02-12T03:39:35.330Z,4.67
2023-02-12T03:42:16.252Z,4.66
2023-02-12T03:44:56.520Z,4.63
2023-02-12T03:47:37.992Z,4.60
2023-02-12T03:50:18.919Z,4.62
2023-02-12T03:52:47.161Z,4.64
2023-02-12T03:55:14.560Z,4.63
2023-02-12T03:57:45.537Z,4.65
2023-02-12T04:00:20.987Z,4.59
2023-02-12T04:02:48.297Z,4.59
2023-02-12T04:05:24.304Z,4.57
2023-02-12T04:07:52.754Z,4.57
2023-02-12T04:10:28.087Z,4.54
2023-02-12T04:13:01.125Z,4.56
2023-02-12T04:15:37.793Z,4.56
2023-02-12T04:18:20.571Z,4.55
2023-02-12T04:21:25.694Z,4.53
2023-02-12T04:24:26.173Z,4.55
2023-02-12T04:27:16.410Z,4.58
2023-02-12T04:29:52.118Z,4.56
2023-02-12T04:32:29.675Z,4.58
2023-02-12T04:35:05.595Z,4.61
2023-02-12T04:37:43.899Z,4.61
2023-02-12T04:40:14.529Z,4.61
2023-02-12T04:42:46.422Z,4.65
2023-02-12T04:45:15.995Z,4.57
2023-02-12T04:47:42.662Z,4.60
2023-02-12T04:50:09.760Z,4.63
2023-02-12T04:52:36.387Z,4.67
2023-02-12T04:55:03.423Z,4.68
2023-02-12T04:57:30.097Z,4.66
2023-02-12T04:59:56.767Z,4.64
2023-02-12T05:02:23.501Z,4.58
2023-02-12T05:04:50.968Z,4.59
2023-02-12T05:07:17.662Z,4.56
2023-02-12T05:09:44.295Z,4.57
2023-02-12T05:12:10.921Z,4.58
2023-02-12T05:14:37.595Z,4.58
2023-02-12T05:17:04.197Z,4.59
2023-02-12T05:19:30.938Z,4.58
2023-02-12T05:21:57.606Z,4.56
2023-02-12T05:24:24.291Z,4.58
2023-02-12T05:26:51.040Z,4.57
2023-02-12T05:29:17.941Z,4.56
2023-02-12T05:31:45.187Z,4.53
2023-02-12T05:34:13.120Z,4.54
2023-02-12T05:36:40.296Z,4.54
2023-02-12T05:39:07.452Z,4.55
2023-02-12T05:41:37.238Z,4.56
2023-02-12T05:44:05.201Z,4.56
2023-02-12T05:46:32.344Z,4.55
2023-02-12T05:48:59.190Z,4.54
2023-02-12T05:51:27.484Z,4.55
2023-02-12T05:54:01.798Z,4.56
2023-02-12T05:56:32.310Z,4.57
2023-02-12T05:59:02.453Z,4.57
2023-02-12T06:01:43.471Z,4.55
2023-02-12T06:04:23.669Z,4.56
2023-02-12T06:06:52.119Z,4.55
2023-02-12T06:09:19.492Z,4.58
2023-02-12T06:11:46.364Z,4.61
2023-02-12T06:14:17.061Z,4.60
2023-02-12T06:16:49.605Z,4.56
2023-02-12T06:19:17.222Z,4.57
2023-02-12T06:21:44.356Z,4.54
2023-02-12T06:24:15.922Z,4.60
2023-02-12T06:26:43.208Z,4.59
2023-02-12T06:29:09.889Z,4.57
2023-02-12T06:31:37.532Z,4.59
2023-02-12T06:34:07.696Z,4.57
2023-02-12T06:36:36.353Z,4.59
2023-02-12T06:39:03.874Z,4.56
2023-02-12T06:41:30.598Z,4.59
2023-02-12T06:43:57.203Z,4.62
2023-02-12T06:46:24.208Z,4.63
2023-02-12T06:48:55.382Z,4.65
2023-02-12T06:51:23.536Z,4.68
2023-02-12T06:53:51.540Z,4.70
2023-02-12T06:56:18.788Z,4.66
2023-02-12T06:58:47.533Z,4.65
2023-02-12T07:01:17.778Z,4.60
2023-02-12T07:03:55.776Z,4.60
2023-02-12T07:06:23.028Z,4.60
2023-02-12T07:08:49.990Z,4.64
2023-02-12T07:11:17.536Z,4.63
2023-02-12T07:13:45.240Z,4.66
2023-02-12T07:16:14.583Z,4.65
2023-02-12T07:18:41.556Z,4.62
2023-02-12T07:21:08.724Z,4.64
2023-02-12T07:23:36.404Z,4.67
2023-02-12T07:26:07.650Z,4.69
2023-02-12T07:28:35.201Z,4.64
2023-02-12T07:31:16.572Z,4.59
2023-02-12T07:33:43.618Z,4.57
2023-02-12T07:36:13.400Z,4.63
2023-02-12T07:38:40.615Z,4.66
2023-02-12T07:41:17.003Z,4.66
2023-02-12T07:43:45.872Z,4.71
2023-02-12T07:46:16.881Z,4.73
2023-02-12T07:48:44.601Z,4.75
2023-02-12T07:51:13.895Z,4.79
2023-02-12T07:53:41.129Z,4.81
2023-02-12T07:56:17.573Z,4.84
2023-02-12T07:58:46.100Z,4.89
2023-02-12T08:01:24.445Z,4.91
2023-02-12T08:03:51.689Z,4.94
2023-02-12T08:06:23.724Z,5.01
2023-02-12T08:08:57.146Z,5.04
2023-02-12T08:11:25.438Z,5.02
2023-02-12T08:13:52.710Z,5.04
2023-02-12T08:16:22.520Z,5.04
2023-02-12T08:18:50.116Z,5.02
2023-02-12T08:21:28.209Z,5.03
2023-02-12T08:23:56.477Z,5.06
2023-02-12T08:26:24.462Z,5.06
2023-02-12T08:28:54.481Z,5.08
2023-02-12T08:31:27.790Z,5.08
2023-02-12T08:33:55.699Z,5.02
2023-02-12T08:36:24.970Z,5.06
2023-02-12T08:38:51.929Z,5.14
2023-02-12T08:41:24.487Z,5.18
2023-02-12T08:43:53.862Z,5.20
2023-02-12T08:46:23.115Z,5.25
2023-02-12T08:48:57.048Z,5.24
2023-02-12T08:51:26.570Z,5.28
2023-02-12T08:53:56.680Z,5.31
2023-02-12T08:56:24.968Z,5.35
2023-02-12T08:58:52.450Z,5.43
2023-02-12T09:01:24.722Z,5.46
2023-02-12T09:03:52.459Z,5.49
2023-02-12T09:06:21.436Z,5.52
2023-02-12T09:08:48.794Z,5.55
2023-02-12T09:11:18.429Z,5.58
2023-02-12T09:13:46.988Z,5.47
2023-02-12T09:16:14.471Z,5.53
2023-02-12T09:18:41.824Z,5.60
2023-02-12T09:21:22.685Z,5.54
2023-02-12T09:23:49.969Z,5.64
2023-02-12T09:26:20.745Z,5.63
2023-02-12T09:28:48.752Z,5.66
2023-02-12T09:31:18.377Z,5.64
2023-02-12T09:33:45.108Z,5.64
2023-02-12T09:36:16.913Z,5.67
2023-02-12T09:38:44.257Z,5.76
2023-02-12T09:41:32.356Z,5.82
2023-02-12T09:44:25.313Z,5.82
2023-02-12T09:46:58.958Z,5.91
2023-02-12T09:49:46.648Z,5.94
2023-02-12T09:52:17.995Z,5.99
2023-02-12T09:54:45.241Z,5.98
2023-02-12T09:57:25.301Z,5.99
2023-02-12T09:59:58.356Z,6.10
2023-02-12T10:02:25.127Z,6.12
2023-02-12T10:05:01.277Z,6.08
2023-02-12T10:07:51.291Z,6.08
2023-02-12T10:10:27.171Z,6.09
2023-02-12T10:13:00.100Z,6.15
2023-02-12T10:15:34.484Z,6.12
2023-02-12T10:18:49.728Z,6.13
2023-02-12T10:21:40.521Z,6.12
2023-02-12T10:24:41.454Z,6.20
2023-02-12T10:27:25.736Z,6.12
2023-02-12T10:29:54.826Z,6.19
2023-02-12T10:32:26.829Z,6.27
2023-02-12T10:34:56.560Z,6.39
2023-02-12T10:37:32.570Z,6.35
2023-02-12T10:40:06.338Z,6.45
2023-02-12T10:42:40.928Z,6.52
2023-02-12T10:45:15.266Z,6.42
2023-02-12T10:47:42.009Z,6.44
2023-02-12T10:50:38.205Z,6.34
2023-02-12T10:53:05.011Z,6.40
2023-02-12T10:55:35.559Z,6.48
2023-02-12T10:58:04.546Z,6.47
2023-02-12T11:00:34.116Z,6.60
2023-02-12T11:03:12.617Z,6.59
2023-02-12T11:05:42.940Z,6.70
2023-02-12T11:08:33.927Z,6.74
2023-02-12T11:11:05.100Z,6.78
2023-02-12T11:13:32.137Z,6.65
2023-02-12T11:15:59.242Z,6.70
2023-02-12T11:18:28.968Z,6.84
2023-02-12T11:20:59.925Z,6.84
2023-02-12T11:23:34.217Z,6.88
2023-02-12T11:26:21.036Z,6.86
2023-02-12T11:28:55.556Z,6.87
2023-02-12T11:31:28.529Z,6.92
2023-02-12T11:34:17.348Z,6.96
2023-02-12T11:36:50.601Z,6.98
2023-02-12T11:39:39.090Z,7.02
2023-02-12T11:42:15.385Z,7.01
2023-02-12T11:44:48.501Z,7.04
2023-02-12T11:47:36.230Z,7.03
2023-02-12T11:50:05.877Z,6.96
2023-02-12T11:52:35.613Z,6.96
2023-02-12T11:55:19.128Z,6.94
2023-02-12T11:57:48.208Z,6.97
2023-02-12T12:00:35.815Z,7.01
2023-02-12T12:03:17.712Z,6.94
2023-02-12T12:05:51.490Z,6.82
2023-02-12T12:08:29.798Z,6.88
2023-02-12T12:11:12.795Z,6.94
2023-02-12T12:13:48.024Z,6.94
2023-02-12T12:16:41.511Z,6.99
2023-02-12T12:19:43.345Z,6.97
2023-02-12T12:22:48.819Z,6.96
2023-02-12T12:25:30.518Z,7.01
2023-02-12T12:28:20.405Z,7.03
2023-02-12T12:31:08.517Z,6.96
2023-02-12T12:33:56.606Z,7.03
2023-02-12T12:36:23.256Z,6.94
2023-02-12T12:39:01.912Z,6.95
2023-02-12T12:41:55.972Z,6.89
2023-02-12T12:44:44.007Z,6.88
2023-02-12T12:47:28.835Z,6.82
2023-02-12T12:50:21.248Z,6.71
2023-02-12T12:52:47.822Z,6.74
2023-02-12T12:55:34.207Z,6.76
2023-02-12T12:58:07.733Z,6.76
2023-02-12T13:01:04.029Z,6.79
2023-02-12T13:03:39.841Z,6.85
2023-02-12T13:06:31.321Z,6.78
2023-02-12T13:09:26.671Z,6.69
2023-02-12T13:11:56.127Z,6.65
2023-02-12T13:14:30.063Z,6.66
2023-02-12T13:17:27.076Z,6.76
2023-02-12T13:20:04.677Z,6.66
2023-02-12T13:22:50.185Z,6.68
2023-02-12T13:25:40.141Z,6.76
2023-02-12T13:28:14.932Z,6.77
2023-02-12T13:30:49.525Z,6.84
2023-02-12T13:33:24.417Z,6.81
2023-02-12T13:35:59.373Z,6.76
2023-02-12T13:38:32.108Z,6.73
2023-02-12T13:41:03.173Z,6.72
2023-02-12T13:44:00.232Z,6.76
2023-02-12T13:46:50.112Z,6.73
2023-02-12T13:49:38.587Z,6.72
2023-02-12T13:52:11.973Z,6.71
2023-02-12T13:55:10.655Z,6.71
2023-02-12T13:57:37.290Z,6.80
2023-02-12T14:00:08.952Z,6.86
2023-02-12T14:02:37.334Z,6.90
2023-02-12T14:05:22.655Z,6.95
2023-02-12T14:07:52.983Z,6.91
2023-02-12T14:10:39.720Z,6.91
2023-02-12T14:13:20.744Z,6.95
2023-02-12T14:15:56.282Z,6.99
2023-02-12T14:18:25.420Z,6.93
2023-02-12T14:21:13.958Z,6.87
2023-02-12T14:23:46.003Z,6.85
2023-02-12T14:26:23.587Z,6.85
2023-02-12T14:28:57.940Z,6.78
2023-02-12T14:31:27.676Z,6.79
2023-02-12T14:34:06.806Z,6.78
2023-02-12T14:36:33.475Z,6.75
2023-02-12T14:39:04.057Z,6.64
2023-02-12T14:41:34.861Z,6.71
2023-02-12T14:44:30.795Z,6.68
2023-02-12T14:47:21.627Z,6.74
2023-02-12T14:49:55.786Z,6.73
2023-02-12T14:52:39.663Z,6.74
2023-02-12T14:55:19.074Z,6.77
2023-02-12T14:57:46.170Z,6.73
2023-02-12T15:00:21.339Z,6.71
2023-02-12T15:03:12.591Z,6.73
2023-02-12T15:05:48.408Z,6.57
2023-02-12T15:08:49.673Z,6.55
2023-02-12T15:11:35.216Z,6.56
2023-02-12T15:14:11.588Z,6.55
2023-02-12T15:16:52.873Z,6.56
2023-02-12T15:19:47.024Z,6.42
2023-02-12T15:22:30.627Z,6.45
2023-02-12T15:25:19.255Z,6.48
2023-02-12T15:27:48.818Z,6.48
2023-02-12T15:30:26.129Z,6.46
2023-02-12T15:32:56.371Z,6.45
2023-02-12T15:35:27.477Z,6.50
2023-02-12T15:37:56.140Z,6.52
2023-02-12T15:40:23.417Z,6.51
2023-02-12T15:42:59.293Z,6.54
2023-02-12T15:45:31.360Z,6.59
2023-02-12T15:48:20.814Z,6.52
2023-02-12T15:50:49.204Z,6.36
2023-02-12T15:53:17.358Z,6.37
2023-02-12T15:55:48.622Z,6.40
2023-02-12T15:58:26.656Z,6.40
2023-02-12T16:00:55.579Z,6.37
2023-02-12T16:03:25.290Z,6.38
2023-02-12T16:05:56.282Z,6.40
2023-02-12T16:08:24.427Z,6.40
2023-02-12T16:10:54.062Z,6.39
2023-02-12T16:13:35.464Z,6.35
2023-02-12T16:16:15.894Z,6.37
2023-02-12T16:18:43.540Z,6.32
2023-02-12T16:21:22.342Z,6.24
2023-02-12T16:23:51.257Z,6.28
2023-02-12T16:26:26.651Z,6.32
2023-02-12T16:28:56.751Z,6.32
2023-02-12T16:31:26.441Z,6.32
2023-02-12T16:33:56.205Z,6.33
2023-02-12T16:36:22.823Z,6.29
2023-02-12T16:39:02.243Z,6.30
2023-02-12T16:41:33.532Z,6.29
2023-02-12T16:44:00.095Z,6.32
2023-02-12T16:46:30.476Z,6.30
2023-02-12T16:49:00.632Z,6.28
2023-02-12T16:51:30.097Z,6.30
2023-02-12T16:53:57.884Z,6.23
2023-02-12T16:56:27.285Z,6.23
2023-02-12T16:58:58.471Z,6.22
2023-02-12T17:01:34.523Z,6.22
2023-02-12T17:04:05.695Z,6.26
2023-02-12T17:06:33.134Z,6.26
2023-02-12T17:09:00.371Z,6.27
2023-02-12T17:11:29.082Z,6.29
2023-02-12T17:13:56.780Z,6.25
2023-02-12T17:16:32.275Z,6.27
2023-02-12T17:19:00.600Z,6.30
2023-02-12T17:21:39.739Z,6.23
2023-02-12T17:24:29.307Z,6.18
2023-02-12T17:26:56.179Z,6.14
2023-02-12T17:29:24.966Z,6.15
2023-02-12T17:31:53.931Z,6.11
2023-02-12T17:34:20.775Z,6.13
2023-02-12T17:36:47.534Z,6.14
2023-02-12T17:39:15.720Z,6.17
2023-02-12T17:41:44.277Z,6.20
2023-02-12T17:44:13.288Z,6.19
2023-02-12T17:46:39.923Z,6.20
2023-02-12T17:49:06.555Z,6.21
2023-02-12T17:51:33.286Z,6.17
2023-02-12T17:53:59.995Z,6.11
2023-02-12T17:56:26.716Z,6.12
2023-02-12T17:58:53.462Z,6.12
2023-02-12T18:01:22.576Z,6.14
2023-02-12T18:03:52.391Z,6.13
2023-02-12T18:06:25.753Z,6.12
2023-02-12T18:08:52.761Z,6.14
2023-02-12T18:11:20.277Z,6.11
2023-02-12T18:13:47.338Z,6.14
2023-02-12T18:16:14.608Z,6.05
2023-02-12T18:18:41.400Z,6.08
2023-02-12T18:21:13.702Z,6.08
2023-02-12T18:23:40.677Z,6.10
2023-02-12T18:26:16.134Z,6.15
2023-02-12T18:28:42.917Z,6.16
2023-02-12T18:31:10.986Z,6.17
2023-02-12T18:33:38.823Z,6.11
2023-02-12T18:36:11.267Z,6.10
2023-02-12T18:38:39.766Z,6.12
2023-02-12T18:41:22.024Z,6.11
2023-02-12T18:43:48.662Z,6.10
2023-02-12T18:46:21.709Z,6.08
2023-02-12T18:48:49.161Z,6.08
2023-02-12T18:51:22.655Z,6.05
2023-02-12T18:54:05.902Z,6.03
2023-02-12T18:56:36.480Z,5.98
2023-02-12T18:59:05.213Z,5.98
2023-02-12T19:01:33.202Z,5.98
2023-02-12T19:04:01.445Z,5.99
2023-02-12T19:06:29.936Z,6.00
2023-02-12T19:08:58.348Z,6.02
2023-02-12T19:11:26.523Z,6.00
2023-02-12T19:13:53.807Z,6.00
2023-02-12T19:16:21.829Z,6.01
2023-02-12T19:18:49.362Z,5.98
2023-02-12T19:21:19.849Z,5.98
2023-02-12T19:23:46.947Z,5.97
2023-02-12T19:26:16.335Z,5.97
2023-02-12T19:28:43.376Z,5.92
2023-02-12T19:31:15.652Z,5.89
2023-02-12T19:33:43.611Z,5.87
2023-02-12T19:36:12.416Z,5.84
2023-02-12T19:38:39.478Z,5.83
2023-02-12T19:41:13.596Z,5.83
2023-02-12T19:43:40.562Z,5.83
2023-02-12T19:46:10.526Z,5.84
2023-02-12T19:48:37.600Z,5.85
2023-02-12T19:51:04.807Z,5.85
2023-02-12T19:53:31.893Z,5.84
2023-02-12T19:56:05.165Z,5.78
2023-02-12T19:58:31.905Z,5.77
2023-02-12T20:00:59.074Z,5.74
2023-02-12T20:03:26.657Z,5.72
2023-02-12T20:06:05.245Z,5.68
2023-02-12T20:08:33.180Z,5.62
2023-02-12T20:10:59.880Z,5.59
2023-02-12T20:13:26.512Z,5.57
2023-02-12T20:15:53.911Z,5.45
2023-02-12T20:18:20.625Z,5.49
2023-02-12T20:20:47.216Z,5.52
2023-02-12T20:23:13.928Z,5.53
2023-02-12T20:25:44.975Z,5.55
2023-02-12T20:28:11.699Z,5.59
2023-02-12T20:30:42.756Z,5.59
2023-02-12T20:33:10.438Z,5.58
2023-02-12T20:35:37.569Z,5.64
2023-02-12T20:38:05.753Z,5.62
2023-02-12T20:40:33.074Z,5.59
2023-02-12T20:43:00.760Z,5.64
2023-02-12T20:45:28.090Z,5.61
2023-02-12T20:47:54.807Z,5.62
2023-02-12T20:50:21.364Z,5.54
2023-02-12T20:52:48.126Z,5.55
2023-02-12T20:55:14.784Z,5.55
2023-02-12T20:57:41.443Z,5.50
2023-02-12T21:00:08.700Z,5.47
2023-02-12T21:02:35.535Z,5.45
2023-02-12T21:05:02.286Z,5.46
2023-02-12T21:07:28.912Z,5.48
2023-02-12T21:09:55.598Z,5.48
2023-02-12T21:12:22.215Z,5.47
2023-02-12T21:14:48.918Z,5.45
2023-02-12T21:17:15.571Z,5.42
2023-02-12T21:19:42.281Z,5.40
2023-02-12T21:22:08.982Z,5.41
2023-02-12T21:24:35.678Z,5.38
2023-02-12T21:27:02.282Z,5.36
2023-02-12T21:29:33.162Z,5.37
2023-02-12T21:32:01.105Z,5.37
2023-02-12T21:34:27.993Z,5.40
2023-02-12T21:36:56.107Z,5.40
2023-02-12T21:39:28.157Z,5.40
2023-02-12T21:42:00.934Z,5.37
2023-02-12T21:44:28.501Z,5.33
2023-02-12T21:46:55.362Z,5.33
2023-02-12T21:49:26.498Z,5.10
2023-02-12T21:51:58.815Z,5.09
2023-02-12T21:54:25.990Z,5.04
2023-02-12T21:56:52.935Z,5.07
2023-02-12T21:59:19.714Z,5.06
2023-02-12T22:01:53.104Z,5.07
2023-02-12T22:04:20.168Z,5.02
2023-02-12T22:06:49.434Z,5.01
2023-02-12T22:09:18.706Z,4.86
2023-02-12T22:11:45.638Z,4.87
2023-02-12T22:14:16.736Z,4.73
2023-02-12T22:16:44.268Z,4.69
2023-02-12T22:19:11.059Z,4.63
2023-02-12T22:21:40.232Z,4.65
2023-02-12T22:24:08.827Z,4.57
2023-02-12T22:26:35.781Z,4.66
2023-02-12T22:29:06.484Z,4.73
2023-02-12T22:31:36.391Z,4.76
2023-02-12T22:34:06.764Z,4.82
2023-02-12T22:36:35.633Z,4.88
2023-02-12T22:39:02.614Z,4.88
2023-02-12T22:41:29.366Z,4.92
2023-02-12T22:43:59.042Z,4.92
2023-02-12T22:46:26.438Z,4.95
2023-02-12T22:48:53.082Z,4.96
2023-02-12T22:51:23.459Z,4.95
2023-02-12T22:53:50.298Z,4.94
2023-02-12T22:56:17.250Z,4.94
2023-02-12T22:58:44.615Z,4.90
2023-02-12T23:01:16.393Z,4.85
2023-02-12T23:03:44.036Z,4.84
2023-02-12T23:06:12.837Z,4.71
2023-02-12T23:08:40.221Z,4.73
2023-02-12T23:11:08.528Z,4.79
2023-02-12T23:13:36.213Z,4.83
2023-02-12T23:16:03.364Z,4.82
2023-02-12T23:18:30.355Z,4.84
2023-02-12T23:20:57.375Z,4.84
2023-02-12T23:23:24.207Z,4.84
2023-02-12T23:25:51.276Z,4.85
2023-02-12T23:28:17.979Z,4.85
2023-02-12T23:30:44.652Z,4.85
2023-02-12T23:33:11.709Z,4.81
2023-02-12T23:35:38.448Z,4.77
2023-02-12T23:38:05.462Z,4.75
2023-02-12T23:40:33.475Z,4.75
2023-02-12T23:43:00.332Z,4.76
2023-02-12T23:45:28.002Z,4.77
2023-02-12T23:47:55.251Z,4.76
2023-02-12T23:50:22.388Z,4.73
2023-02-12T23:52:49.492Z,4.74
2023-02-12T23:55:18.072Z,4.74
2023-02-12T23:57:45.038Z,4.71
